createdAt,value
2022-08-23T00:01:24.878Z,9.85
2022-08-23T00:07:44.568Z,12.15
2022-08-23T00:10:17.908Z,16.25
2022-08-23T00:12:48.310Z,14.70
2022-08-23T00:15:20.818Z,10.38
2022-08-23T00:17:50.704Z,10.95
2022-08-23T00:20:21.558Z,18.15
2022-08-23T00:22:51.766Z,13.77
2022-08-23T00:25:23.377Z,16.23
2022-08-23T00:27:52.611Z,21.17
2022-08-23T00:30:22.073Z,16.58
2022-08-23T00:32:51.511Z,17.83
2022-08-23T00:35:27.503Z,18.52
2022-08-23T00:38:33.230Z,15.10
2022-08-23T00:44:02.639Z,15.70
2022-08-23T00:47:02.325Z,14.10
2022-08-23T00:49:35.127Z,13.25
2022-08-23T00:58:36.615Z,15.25
2022-08-23T01:01:07.632Z,14.10
2022-08-23T01:03:40.744Z,16.23
2022-08-23T01:06:30.209Z,26.60
2022-08-23T01:09:05.729Z,16.85
2022-08-23T01:11:42.315Z,14.40
2022-08-23T01:14:20.466Z,13.73
2022-08-23T01:16:58.241Z,17.48
2022-08-23T01:19:34.754Z,13.82
2022-08-23T01:25:42.704Z,22.65
2022-08-23T01:32:44.188Z,20.13
2022-08-23T01:35:57.438Z,18.30
2022-08-23T01:38:42.603Z,17.35
2022-08-23T01:44:10.035Z,15.77
2022-08-23T01:49:24.425Z,14.75
2022-08-23T01:51:53.533Z,13.65
2022-08-23T02:00:09.515Z,14.05
2022-08-23T02:05:12.956Z,20.20
2022-08-23T02:07:48.671Z,26.45
2022-08-23T02:10:20.942Z,19.27
2022-08-23T02:12:57.355Z,21.33
2022-08-23T02:15:26.537Z,18.55
2022-08-23T02:20:48.972Z,15.77
2022-08-23T02:26:19.811Z,16.30
2022-08-23T02:31:56.917Z,16.73
2022-08-23T02:40:15.919Z,25.90
2022-08-23T02:45:47.331Z,16.83
2022-08-23T02:48:16.614Z,21.30
2022-08-23T02:54:02.722Z,18.58
2022-08-23T03:06:38.510Z,16.80
2022-08-23T03:32:28.623Z,15.68
2022-08-23T03:38:55.141Z,20.65
2022-08-23T03:53:14.985Z,23.00
2022-08-23T04:17:56.865Z,18.23
2022-08-23T04:24:08.832Z,18.20
2022-08-23T04:26:42.335Z,19.77
2022-08-23T04:29:28.489Z,16.65
2022-08-23T04:32:05.607Z,16.17
2022-08-23T04:34:40.245Z,18.55
2022-08-23T04:37:10.265Z,15.70
2022-08-23T04:39:55.012Z,13.77
2022-08-23T04:42:24.074Z,17.63
2022-08-23T04:44:53.169Z,14.50
2022-08-23T04:47:22.159Z,15.20
2022-08-23T04:49:51.183Z,15.30
2022-08-23T04:52:21.305Z,23.15
2022-08-23T04:54:51.497Z,23.20
2022-08-23T04:57:21.782Z,18.67
2022-08-23T04:59:52.105Z,19.27
2022-08-23T05:02:21.130Z,14.68
2022-08-23T05:04:51.998Z,22.02
2022-08-23T05:07:21.720Z,18.02
2022-08-23T05:10:15.270Z,15.50
2022-08-23T05:12:44.674Z,13.60
2022-08-23T05:15:14.720Z,14.63
2022-08-23T05:17:43.809Z,14.15
2022-08-23T05:20:13.470Z,17.17
2022-08-23T05:22:45.937Z,14.30
2022-08-23T05:25:16.219Z,17.67
2022-08-23T05:27:45.519Z,15.48
2022-08-23T05:30:15.503Z,15.02
2022-08-23T05:32:46.334Z,19.45
2022-08-23T05:35:17.502Z,23.98
2022-08-23T05:37:46.541Z,16.17
2022-08-23T05:40:18.565Z,15.60
2022-08-23T05:42:47.079Z,12.73
2022-08-23T05:45:20.696Z,11.60
2022-08-23T05:47:52.481Z,18.23
2022-08-23T05:50:24.921Z,16.27
2022-08-23T05:52:53.850Z,12.05
2022-08-23T05:55:27.619Z,21.90
2022-08-23T05:58:04.385Z,17.15
2022-08-23T06:00:37.928Z,13.63
2022-08-23T06:03:09.491Z,16.80
2022-08-23T06:05:42.453Z,12.07
2022-08-23T06:08:11.488Z,14.38
2022-08-23T06:10:43.637Z,21.92
2022-08-23T06:13:20.797Z,18.02
2022-08-23T06:15:50.471Z,18.58
2022-08-23T06:18:21.037Z,15.00
2022-08-23T06:21:01.083Z,15.57
2022-08-23T06:23:30.700Z,17.55
2022-08-23T06:26:02.052Z,22.88
2022-08-23T06:28:32.525Z,14.00
2022-08-23T06:31:01.494Z,14.18
2022-08-23T06:33:31.666Z,16.38
2022-08-23T06:36:06.913Z,19.40
2022-08-23T06:38:36.490Z,16.10
2022-08-23T06:41:09.599Z,17.83
2022-08-23T06:43:43.346Z,22.02
2022-08-23T06:46:20.435Z,18.02
2022-08-23T06:48:57.646Z,15.48
2022-08-23T06:51:29.283Z,19.00
2022-08-23T06:54:03.303Z,24.05
2022-08-23T06:56:35.410Z,19.23
2022-08-23T06:59:17.830Z,15.25
2022-08-23T07:04:39.997Z,12.70
2022-08-23T07:07:11.857Z,16.17
2022-08-23T07:09:44.787Z,18.75
2022-08-23T07:12:15.822Z,19.67
2022-08-23T07:14:46.495Z,19.83
2022-08-23T07:17:15.621Z,20.60
2022-08-23T07:19:44.612Z,13.77
2022-08-23T07:22:15.553Z,16.85
2022-08-23T07:24:45.905Z,16.20
2022-08-23T07:27:16.250Z,21.15
2022-08-23T07:29:44.813Z,26.80
2022-08-23T07:32:13.743Z,20.77
2022-08-23T07:34:44.090Z,19.70
2022-08-23T07:37:15.747Z,21.77
2022-08-23T07:39:44.827Z,21.90
2022-08-23T07:42:23.718Z,24.50
2022-08-23T07:44:54.935Z,19.58
2022-08-23T07:47:26.485Z,18.50
2022-08-23T07:49:56.691Z,14.43
2022-08-23T07:52:33.229Z,18.25
2022-08-23T07:55:01.928Z,20.45
2022-08-23T07:57:32.051Z,19.58
2022-08-23T08:00:02.026Z,20.50
2022-08-23T08:02:30.553Z,17.70
2022-08-23T08:04:59.823Z,16.08
2022-08-23T08:07:35.441Z,13.02
2022-08-23T08:10:08.043Z,14.07
2022-08-23T08:12:41.038Z,20.58
2022-08-23T08:15:14.182Z,15.07
2022-08-23T08:17:42.611Z,13.57
2022-08-23T08:20:12.341Z,17.77
2022-08-23T08:22:48.009Z,17.70
2022-08-23T08:25:20.687Z,15.13
2022-08-23T08:27:49.851Z,14.32
2022-08-23T08:30:21.569Z,16.55
2022-08-23T08:33:04.753Z,12.52
2022-08-23T08:35:33.587Z,13.60
2022-08-23T08:38:06.675Z,13.20
2022-08-23T08:40:42.335Z,14.05
2022-08-23T08:43:32.120Z,13.25
2022-08-23T08:46:14.161Z,17.63
2022-08-23T08:49:00.202Z,13.73
2022-08-23T08:51:42.093Z,12.38
2022-08-23T08:54:20.229Z,14.50
2022-08-23T08:57:01.157Z,14.00
2022-08-23T09:02:20.099Z,13.77
2022-08-23T09:04:59.983Z,18.00
2022-08-23T09:07:45.311Z,15.45
2022-08-23T09:10:49.762Z,15.60
2022-08-23T09:14:00.593Z,18.75
2022-08-23T09:16:46.496Z,12.88
2022-08-23T09:19:26.699Z,22.70
2022-08-23T09:22:07.671Z,18.70
2022-08-23T09:24:50.696Z,15.35
2022-08-23T09:30:13.986Z,15.13
2022-08-23T09:32:45.901Z,13.52
2022-08-23T09:35:23.935Z,14.82
2022-08-23T09:38:01.856Z,12.35
2022-08-23T09:40:51.381Z,17.33
2022-08-23T09:46:24.280Z,15.48
2022-08-23T09:48:58.368Z,15.02
2022-08-23T09:51:35.787Z,18.07
2022-08-23T09:54:34.407Z,13.43
2022-08-23T09:57:11.962Z,16.50
2022-08-23T10:02:50.046Z,17.27
2022-08-23T10:05:29.048Z,15.27
2022-08-23T10:09:04.565Z,15.00
2022-08-23T10:11:41.692Z,13.70
2022-08-23T10:14:17.990Z,18.30
2022-08-23T10:20:12.162Z,17.38
2022-08-23T10:22:47.479Z,17.48
2022-08-23T10:25:26.301Z,15.77
2022-08-23T10:28:27.651Z,20.13
2022-08-23T10:31:04.351Z,14.18
2022-08-23T10:33:47.780Z,12.85
2022-08-23T10:36:24.262Z,14.27
2022-08-23T10:38:58.272Z,12.60
2022-08-23T10:41:48.348Z,12.15
2022-08-23T10:44:35.647Z,15.50
2022-08-23T10:47:19.735Z,15.23
2022-08-23T10:49:55.793Z,14.20
2022-08-23T10:52:31.100Z,13.20
2022-08-23T10:55:18.791Z,12.73
2022-08-23T10:57:50.187Z,12.98
2022-08-23T11:00:26.505Z,13.45
2022-08-23T11:03:03.887Z,13.05
2022-08-23T11:08:36.721Z,11.23
2022-08-23T11:13:56.102Z,15.73
2022-08-23T11:25:56.894Z,7.97
2022-08-23T11:28:49.961Z,10.32
2022-08-23T11:31:33.338Z,12.02
2022-08-23T11:34:05.869Z,14.85
2022-08-23T11:36:40.958Z,12.95
2022-08-23T11:39:33.842Z,8.85
2022-08-23T11:42:07.370Z,10.85
2022-08-23T11:44:43.439Z,11.52
2022-08-23T11:47:14.990Z,12.27
2022-08-23T11:54:05.690Z,8.93
2022-08-23T11:57:12.430Z,7.65
2022-08-23T12:00:10.152Z,9.70
2022-08-23T12:03:05.556Z,10.85
2022-08-23T12:06:50.600Z,9.10
2022-08-23T12:09:55.241Z,8.30
2022-08-23T12:12:39.449Z,9.25
2022-08-23T12:18:17.409Z,9.65
2022-08-23T12:20:53.662Z,10.57
2022-08-23T12:23:24.516Z,12.98
2022-08-23T12:26:13.816Z,12.60
2022-08-23T12:28:51.684Z,10.32
2022-08-23T12:31:31.725Z,8.55
2022-08-23T12:34:28.260Z,12.27
2022-08-23T12:37:12.205Z,9.00
2022-08-23T12:39:55.252Z,10.68
2022-08-23T12:42:32.867Z,12.00
2022-08-23T12:45:08.272Z,9.27
2022-08-23T12:47:43.108Z,17.20
2022-08-23T12:53:03.287Z,7.38
2022-08-23T12:55:38.913Z,8.45
2022-08-23T12:58:09.381Z,9.15
2022-08-23T13:00:43.653Z,5.85
2022-08-23T13:03:24.685Z,9.90
2022-08-23T13:06:02.245Z,8.40
2022-08-23T13:08:39.502Z,8.15
2022-08-23T13:11:16.994Z,8.43
2022-08-23T13:13:46.949Z,8.40
2022-08-23T13:16:32.594Z,9.65
2022-08-23T13:19:22.428Z,6.82
2022-08-23T13:22:15.962Z,8.07
2022-08-23T13:25:27.550Z,5.47
2022-08-23T13:28:14.991Z,9.45
2022-08-23T13:31:03.856Z,4.78
2022-08-23T13:36:34.899Z,4.95
2022-08-23T13:39:08.419Z,6.13
2022-08-23T13:41:58.340Z,4.20
2022-08-23T13:44:31.858Z,6.70
2022-08-23T13:49:46.894Z,8.15
2022-08-23T13:55:05.048Z,6.90
2022-08-23T13:57:37.220Z,5.50
2022-08-23T14:00:10.792Z,5.03
2022-08-23T14:02:41.243Z,4.83
2022-08-23T14:05:20.228Z,7.90
2022-08-23T14:07:52.946Z,6.50
2022-08-23T14:10:24.334Z,6.13
2022-08-23T14:13:02.219Z,8.40
2022-08-23T14:18:21.308Z,4.28
2022-08-23T14:21:03.685Z,5.63
2022-08-23T14:23:37.277Z,7.85
2022-08-23T14:26:20.598Z,6.75
2022-08-23T14:28:55.314Z,5.22
2022-08-23T14:34:18.290Z,8.32
2022-08-23T14:39:50.633Z,9.38
2022-08-23T14:42:32.626Z,11.32
2022-08-23T14:45:17.811Z,10.88
2022-08-23T14:47:54.044Z,5.22
2022-08-23T14:56:28.692Z,11.52
2022-08-23T14:59:14.000Z,7.63
2022-08-23T15:01:45.397Z,9.07
2022-08-23T15:05:03.132Z,7.32
2022-08-23T15:08:23.855Z,7.80
2022-08-23T15:19:55.118Z,6.28
2022-08-23T15:25:27.170Z,9.13
2022-08-23T15:27:57.784Z,6.47
2022-08-23T15:33:43.483Z,7.03
2022-08-23T15:36:24.520Z,7.55
2022-08-23T15:41:57.655Z,7.68
2022-08-23T15:44:34.774Z,5.75
2022-08-23T15:47:06.426Z,8.35
2022-08-23T15:49:38.622Z,6.43
2022-08-23T15:52:25.911Z,10.75
2022-08-23T15:54:57.915Z,9.85
2022-08-23T15:57:30.458Z,10.38
2022-08-23T16:03:23.493Z,5.00
2022-08-23T16:11:41.880Z,5.97
2022-08-23T16:14:14.157Z,10.80
2022-08-23T16:17:00.014Z,6.15
2022-08-23T16:19:33.173Z,6.43
2022-08-23T16:22:04.590Z,6.60
2022-08-23T16:24:32.943Z,10.50
2022-08-23T16:27:04.488Z,9.13
2022-08-23T16:29:50.062Z,7.65
2022-08-23T16:35:38.539Z,6.05
2022-08-23T16:38:11.530Z,6.07
2022-08-23T16:46:30.638Z,8.35
2022-08-23T16:49:03.370Z,7.00
2022-08-23T16:51:34.234Z,8.80
2022-08-23T17:00:06.905Z,8.43
2022-08-23T17:03:23.364Z,6.85
2022-08-23T17:09:17.436Z,6.60
2022-08-23T17:11:48.849Z,10.63
2022-08-23T17:22:53.678Z,10.65
2022-08-23T17:55:22.842Z,15.30
2022-08-23T17:57:55.098Z,9.43
2022-08-23T18:03:39.458Z,8.15
2022-08-23T18:09:16.077Z,13.23
2022-08-23T18:11:46.498Z,8.77
2022-08-23T18:14:15.273Z,8.80
2022-08-23T18:16:53.533Z,7.10
2022-08-23T18:19:23.332Z,12.75
2022-08-23T18:21:52.977Z,7.40
2022-08-23T18:24:31.283Z,5.70
2022-08-23T18:27:21.149Z,7.45
2022-08-23T18:29:54.507Z,9.88
2022-08-23T18:32:26.665Z,6.18
2022-08-23T18:34:57.641Z,9.05
2022-08-23T18:37:27.323Z,5.93
2022-08-23T18:43:02.944Z,7.72
2022-08-23T18:45:35.506Z,9.43
2022-08-23T18:48:05.231Z,9.30
2022-08-23T18:50:39.293Z,8.48
2022-08-23T18:53:09.035Z,7.82
2022-08-23T18:55:38.992Z,7.93
2022-08-23T18:58:09.208Z,7.93
2022-08-23T19:00:41.892Z,7.18
2022-08-23T19:08:57.720Z,10.35
2022-08-23T19:11:29.471Z,5.60
2022-08-23T19:17:22.416Z,6.32
2022-08-23T19:28:44.948Z,8.98
2022-08-23T19:34:11.533Z,8.63
2022-08-23T19:39:47.011Z,8.20
2022-08-23T19:58:47.495Z,15.60
2022-08-23T20:04:14.468Z,7.50
2022-08-23T20:09:43.896Z,12.73
2022-08-23T20:15:30.678Z,8.80
2022-08-23T20:17:59.830Z,7.90
2022-08-23T20:26:35.484Z,11.85
2022-08-23T20:32:08.555Z,25.27
2022-08-23T20:40:50.942Z,12.52
2022-08-23T20:43:25.326Z,18.60
2022-08-23T20:45:56.236Z,15.48
2022-08-23T20:48:27.329Z,15.07
2022-08-23T20:51:07.437Z,16.27
2022-08-23T20:56:43.502Z,16.35
2022-08-23T20:59:15.519Z,13.48
2022-08-23T21:04:31.424Z,14.73
2022-08-23T21:07:01.441Z,14.32
2022-08-23T21:09:34.642Z,16.02
2022-08-23T21:15:32.314Z,15.88
2022-08-23T21:18:01.308Z,14.98
2022-08-23T21:26:29.510Z,19.52
2022-08-23T21:31:29.312Z,18.48
2022-08-23T21:33:59.915Z,15.07
2022-08-23T21:36:29.337Z,15.10
2022-08-23T21:38:58.240Z,15.45
2022-08-23T21:41:37.917Z,17.17
2022-08-23T21:44:11.274Z,17.67
2022-08-23T21:46:43.331Z,19.65
2022-08-23T21:49:13.942Z,20.17
2022-08-23T21:51:51.177Z,17.75
2022-08-23T21:54:30.583Z,27.02
2022-08-23T21:56:59.383Z,22.73
2022-08-23T21:59:30.809Z,16.38
2022-08-23T22:02:01.849Z,17.40
2022-08-23T22:04:31.134Z,20.92
2022-08-23T22:07:00.133Z,18.75
2022-08-23T22:12:28.000Z,15.05
2022-08-23T22:14:56.665Z,17.92
2022-08-23T22:17:27.176Z,19.33
2022-08-23T22:19:56.309Z,16.55
2022-08-23T22:25:23.136Z,13.95
2022-08-23T22:28:00.386Z,22.52
2022-08-23T22:30:30.567Z,20.38
2022-08-23T22:33:01.688Z,23.52
2022-08-23T22:35:33.655Z,18.77
2022-08-23T22:38:14.418Z,20.15
2022-08-23T22:40:52.938Z,23.48
2022-08-23T22:43:22.559Z,19.88
2022-08-23T22:45:54.155Z,23.63
2022-08-23T22:48:26.572Z,17.15
2022-08-23T22:51:10.506Z,22.23
2022-08-23T22:53:51.376Z,17.90
2022-08-23T22:59:27.491Z,19.15
2022-08-23T23:02:03.361Z,18.55
2022-08-23T23:04:36.194Z,20.55
2022-08-23T23:07:06.064Z,20.92
2022-08-23T23:09:35.521Z,22.05
2022-08-23T23:12:05.342Z,19.80
2022-08-23T23:14:34.637Z,21.27
2022-08-23T23:20:04.647Z,21.98
2022-08-23T23:22:34.865Z,19.80
2022-08-23T23:25:04.024Z,20.80
2022-08-23T23:27:35.209Z,17.88
2022-08-23T23:30:07.931Z,21.60
2022-08-23T23:32:36.584Z,20.70
2022-08-23T23:35:09.456Z,18.98
2022-08-23T23:37:38.723Z,16.35
2022-08-23T23:40:10.024Z,17.40
2022-08-23T23:42:39.942Z,16.35
2022-08-23T23:45:11.281Z,17.17
2022-08-23T23:47:41.577Z,20.67
2022-08-23T23:50:16.953Z,18.05
2022-08-23T23:55:22.709Z,16.30
2022-08-23T23:57:55.748Z,20.25
